Saffet Bey — TCUZ — position and weather

sailwx.info

Track history (hours):
 
Tides and Currents Weather Stations Pressure Air Temp Water Temp Dewpoint Dewpoint Depression Visibility Wind Speed Wind Dir Waves Ship Positions

Saffet Bey

Last reported at 2014-Oct-20 11:19 UTC. Time now 2014-Oct-20 13:09 UTC.
Position N 36°23' E 022°26'.

Length 164 m; draft 6.9 m.

Type: Ship (hazmat cat A). MMSI: 271000419.

Date/timePositionNaut miles runAvg speedWind from/ knotsBaromVisibWave heightAir tempDewpointWater temp
2014-Oct-20 11:19N 36°23' E 022°26'7414.7
2014-Oct-20 06:19N 36°45' E 023°53'1715.8
2014-Oct-20 05:14N 36°55' E 024°11'4415.6
2014-Oct-20 02:26N 37°20' E 024°56'1415.2
2014-Oct-20 01:29N 37°28' E 025°11'37 0.9
2014-Oct-18 09:12N 37°54' E 025°44'914.7
2014-Oct-18 08:33N 37°47' E 025°36'1514.6
2014-Oct-18 07:33N 37°37' E 025°22'1514.9
2014-Oct-18 06:33N 37°27' E 025°08'1514.8
2014-Oct-18 05:33N 37°18' E 024°54'1514.6
2014-Oct-18 04:33N 37°09' E 024°39'1614.3
2014-Oct-18 03:26N 37°00' E 024°22'3114.0
2014-Oct-18 01:12N 36°43' E 023°50'1214.1
2014-Oct-18 00:21N 36°37' E 023°37'1214.3
2014-Oct-17 23:30N 36°30' E 023°25'  
2014-Oct-12 12:34N 37°08' E 024°36'1615.5
2014-Oct-12 11:34N 37°17' E 024°51'1616.4
2014-Oct-12 10:34N 37°27' E 025°08'1615.8
2014-Oct-12 09:33N 37°37' E 025°23'  
Track history (hours):
 
Tides and Currents Weather Stations Pressure Air Temp Water Temp Dewpoint Dewpoint Depression Visibility Wind Speed Wind Dir Waves Ship Positions

Saffet Bey

Last reported at 2014-Oct-20 11:19 UTC. Time now 2014-Oct-20 13:09 UTC.
Position N 36°23' E 022°26'.

Length 164 m; draft 6.9 m.

Type: Ship (hazmat cat A). MMSI: 271000419.

Date/timePositionNaut miles runAvg speedWind from/ knotsBaromVisibWave heightAir tempDewpointWater temp
2014-Oct-20 11:19N 36°23' E 022°26'7414.7
2014-Oct-20 06:19N 36°45' E 023°53'1715.8
2014-Oct-20 05:14N 36°55' E 024°11'4415.6
2014-Oct-20 02:26N 37°20' E 024°56'1415.2
2014-Oct-20 01:29N 37°28' E 025°11'37 0.9
2014-Oct-18 09:12N 37°54' E 025°44'914.7
2014-Oct-18 08:33N 37°47' E 025°36'1514.6
2014-Oct-18 07:33N 37°37' E 025°22'1514.9
2014-Oct-18 06:33N 37°27' E 025°08'1514.8
2014-Oct-18 05:33N 37°18' E 024°54'1514.6
2014-Oct-18 04:33N 37°09' E 024°39'1614.3
2014-Oct-18 03:26N 37°00' E 024°22'3114.0
2014-Oct-18 01:12N 36°43' E 023°50'1214.1
2014-Oct-18 00:21N 36°37' E 023°37'1214.3
2014-Oct-17 23:30N 36°30' E 023°25'  
2014-Oct-12 12:34N 37°08' E 024°36'1615.5
2014-Oct-12 11:34N 37°17' E 024°51'1616.4
2014-Oct-12 10:34N 37°27' E 025°08'1615.8
2014-Oct-12 09:33N 37°37' E 025°23'  

Dump ship's entire track history